Time;durP1;ratioP1;P1;durP2;ratioP2;P2;SDS_P1;SDS_P2;PMS_P1;PMS_P2;Temp;Humidity;BMP_temperature;BMP_pressure;BME280_temperature;BME280_humidity;BME280_pressure;Samples;Min_cycle;Max_cycle;Signal;HPM_P1;HPM_P2
2023/06/21 00:08:41;;;;;;;3.13;2.07;;;21.80;99.90;;;;;;20868490;28;20327;-69
2023/06/21 00:18:43;;;;;;;2.73;1.90;;;21.90;99.90;;;;;;20832189;28;20303;-70
2023/06/21 00:28:44;;;;;;;3.47;2.30;;;21.90;99.90;;;;;;20831105;28;20268;-66
2023/06/21 00:38:46;;;;;;;5.63;2.60;;;21.90;99.90;;;;;;20830533;28;20264;-70
2023/06/21 00:48:48;;;;;;;3.77;2.50;;;21.60;99.90;;;;;;20830077;28;20715;-70
2023/06/21 00:58:49;;;;;;;4.73;2.60;;;21.60;99.90;;;;;;20829799;28;20229;-70
2023/06/21 01:09:22;;;;;;;7.70;2.53;;;21.60;99.90;;;;;;20829766;28;20673;-69
2023/06/21 01:19:44;;;;;;;11.43;3.80;;;21.60;99.90;;;;;;20829391;28;20292;-67
2023/06/21 01:29:49;;;;;;;5.97;2.50;;;21.50;99.90;;;;;;20828725;28;20322;-67
2023/06/21 01:39:50;;;;;;;6.13;2.90;;;21.50;99.90;;;;;;20828015;28;20315;-67
2023/06/21 01:49:52;;;;;;;5.30;3.07;;;21.50;99.90;;;;;;20828163;28;20283;-67
2023/06/21 01:59:54;;;;;;;11.93;3.00;;;21.50;99.90;;;;;;20832552;28;20306;-66
2023/06/21 02:09:57;;;;;;;9.13;3.53;;;21.50;99.90;;;;;;20841745;28;20724;-66
2023/06/21 02:19:58;;;;;;;6.40;3.37;;;21.30;99.90;;;;;;20841380;28;20204;-67
2023/06/21 02:30:00;;;;;;;8.03;3.63;;;21.20;99.90;;;;;;20840375;28;20325;-66
2023/06/21 02:40:21;;;;;;;9.23;3.97;;;21.10;99.90;;;;;;20839443;28;20680;-66
2023/06/21 02:50:23;;;;;;;11.37;4.30;;;21.10;99.90;;;;;;20838604;28;20333;-67
2023/06/21 03:00:31;;;;;;;9.90;4.30;;;21.00;99.90;;;;;;20838114;28;20220;-66
2023/06/21 03:10:33;;;;;;;8.80;4.00;;;21.00;99.90;;;;;;20836982;28;20212;-67
2023/06/21 03:20:35;;;;;;;8.87;3.77;;;20.90;99.90;;;;;;20836937;28;20727;-66
2023/06/21 03:30:37;;;;;;;4.43;3.60;;;20.80;99.90;;;;;;20835876;28;20294;-67
2023/06/21 03:40:39;;;;;;;9.17;4.80;;;20.80;99.90;;;;;;20834670;28;20236;-68
2023/06/21 03:50:40;;;;;;;8.23;4.60;;;20.80;99.90;;;;;;20834534;28;20234;-67
2023/06/21 04:00:42;;;;;;;6.17;4.40;;;20.80;99.90;;;;;;20834579;28;20692;-68
2023/06/21 04:10:44;;;;;;;7.73;4.70;;;20.80;99.90;;;;;;20833025;28;20221;-66
2023/06/21 04:20:46;;;;;;;12.33;5.80;;;20.90;99.90;;;;;;20833197;28;20679;-69
2023/06/21 04:30:48;;;;;;;7.93;6.00;;;21.20;99.90;;;;;;20831644;28;20633;-67
2023/06/21 04:40:52;;;;;;;17.83;7.00;;;21.40;99.90;;;;;;20830657;28;20235;-70
2023/06/21 04:50:55;;;;;;;11.87;7.83;;;21.70;99.90;;;;;;20830514;28;20295;-69
2023/06/21 05:00:57;;;;;;;11.67;7.97;;;21.80;99.90;;;;;;20829463;28;20234;-71
2023/06/21 05:10:59;;;;;;;19.10;10.30;;;21.80;99.90;;;;;;20829264;28;20734;-70
2023/06/21 05:21:01;;;;;;;17.80;10.30;;;22.10;99.90;;;;;;20829063;28;20232;-72
2023/06/21 05:31:03;;;;;;;17.47;10.30;;;22.30;99.90;;;;;;20828186;28;20209;-71
2023/06/21 05:41:05;;;;;;;17.80;9.87;;;22.40;99.90;;;;;;20843700;28;20242;-69
2023/06/21 05:51:07;;;;;;;15.23;9.90;;;22.50;99.90;;;;;;20843228;28;20228;-63
2023/06/21 06:01:08;;;;;;;13.83;10.00;;;22.50;99.90;;;;;;20841975;28;20243;-65
2023/06/21 06:11:25;;;;;;;19.97;9.50;;;22.60;99.90;;;;;;20841410;28;20212;-64
2023/06/21 06:21:27;;;;;;;16.40;10.33;;;22.80;99.90;;;;;;20839970;28;20235;-62
2023/06/21 06:31:29;;;;;;;19.83;10.63;;;22.80;99.90;;;;;;20839766;28;20724;-65
2023/06/21 06:41:31;;;;;;;14.03;10.87;;;22.80;99.90;;;;;;20838803;28;20307;-62
2023/06/21 06:51:33;;;;;;;15.60;10.03;;;23.00;99.90;;;;;;20837818;28;20223;-69
2023/06/21 07:01:35;;;;;;;14.07;9.87;;;23.20;99.90;;;;;;20837731;28;20663;-68
2023/06/21 07:11:37;;;;;;;12.77;9.00;;;23.50;99.90;;;;;;20836413;28;20205;-63
2023/06/21 07:21:39;;;;;;;10.67;8.13;;;23.70;99.90;;;;;;20835001;28;20233;-63
2023/06/21 07:31:41;;;;;;;13.57;7.50;;;23.90;99.90;;;;;;20835241;28;20286;-61
2023/06/21 07:41:43;;;;;;;12.23;7.67;;;23.80;99.90;;;;;;20833973;28;20262;-63
2023/06/21 07:51:45;;;;;;;30.60;8.37;;;23.90;99.90;;;;;;20833278;28;20204;-68
2023/06/21 08:01:48;;;;;;;12.03;8.03;;;24.20;99.90;;;;;;20831307;28;20232;-69
2023/06/21 08:11:49;;;;;;;11.80;7.40;;;24.40;99.90;;;;;;20831459;28;20208;-69
2023/06/21 08:21:51;;;;;;;11.80;7.97;;;24.50;99.90;;;;;;20829914;28;20662;-67
2023/06/21 08:31:53;;;;;;;11.37;7.40;;;24.70;99.70;;;;;;20830921;28;20255;-69
2023/06/21 08:41:55;;;;;;;11.27;6.57;;;25.00;99.20;;;;;;20829694;28;20704;-69
2023/06/21 08:51:59;;;;;;;7.67;6.63;;;25.10;98.20;;;;;;20829355;28;20214;-69
2023/06/21 09:02:16;;;;;;;9.43;6.73;;;25.10;97.90;;;;;;20829257;28;20236;-66
2023/06/21 09:12:18;;;;;;;12.40;7.10;;;25.30;97.50;;;;;;20839315;28;20298;-69
2023/06/21 09:22:24;;;;;;;9.87;6.40;;;25.50;97.20;;;;;;20847876;28;20364;-64
2023/06/21 09:32:26;;;;;;;11.50;7.17;;;25.50;96.40;;;;;;20846024;28;20735;-67
2023/06/21 09:42:28;;;;;;;9.73;7.57;;;25.70;95.50;;;;;;20844035;28;20244;-66
2023/06/21 09:52:30;;;;;;;25.40;7.47;;;25.90;94.90;;;;;;20841407;28;20224;-69
2023/06/21 10:02:39;;;;;;;9.40;7.73;;;25.80;94.40;;;;;;20849406;28;20661;-68
2023/06/21 10:12:51;;;;;;;9.70;7.33;;;25.60;94.40;;;;;;20841525;28;20259;-69
2023/06/21 10:22:57;;;;;;;8.80;7.03;;;25.80;94.10;;;;;;20839846;28;20236;-69
2023/06/21 10:33:02;;;;;;;10.10;7.50;;;26.00;93.10;;;;;;20840386;28;20205;-64
2023/06/21 10:43:04;;;;;;;11.40;7.63;;;26.30;92.50;;;;;;20838882;28;20255;-66
2023/06/21 10:53:08;;;;;;;9.73;8.47;;;26.40;92.00;;;;;;20838237;28;20204;-67
2023/06/21 11:03:15;;;;;;;9.67;7.47;;;26.40;92.10;;;;;;20836234;28;20233;-63
2023/06/21 11:13:33;;;;;;;10.87;8.47;;;26.20;92.20;;;;;;20836739;28;20216;-62
2023/06/21 11:23:49;;;;;;;12.13;7.70;;;26.00;92.00;;;;;;20835842;28;20247;-65
2023/06/21 11:33:59;;;;;;;8.53;7.43;;;25.80;92.20;;;;;;20834825;28;20213;-65
2023/06/21 11:44:01;;;;;;;10.40;7.70;;;25.70;92.40;;;;;;20834499;28;20675;-65
2023/06/21 11:54:04;;;;;;;8.97;7.00;;;25.60;92.50;;;;;;20833709;28;20616;-65
2023/06/21 12:04:05;;;;;;;9.13;8.13;;;25.60;93.00;;;;;;20848323;28;20327;-69
2023/06/21 12:14:09;;;;;;;8.57;7.70;;;25.70;93.10;;;;;;20831999;28;20734;-67
2023/06/21 12:24:10;;;;;;;10.93;7.50;;;25.80;93.10;;;;;;20884781;28;20269;-68
2023/06/21 12:34:16;;;;;;;8.33;7.47;;;25.90;93.10;;;;;;20963020;28;20290;-72
2023/06/21 12:44:23;;;;;;;10.77;7.50;;;26.10;93.10;;;;;;20938260;28;20243;-73
2023/06/21 12:54:25;;;;;;;7.87;7.07;;;26.70;92.40;;;;;;20912008;28;20686;-72
2023/06/21 13:04:27;;;;;;;9.63;7.70;;;27.20;91.30;;;;;;20995156;28;20709;-62
2023/06/21 13:14:28;;;;;;;9.33;6.60;;;27.40;90.30;;;;;;20993854;28;20204;-63
2023/06/21 13:24:30;;;;;;;8.90;7.07;;;27.30;89.20;;;;;;20993913;28;20262;-67
2023/06/21 13:34:32;;;;;;;7.87;6.73;;;27.30;88.20;;;;;;20942351;28;20299;-65
2023/06/21 13:44:34;;;;;;;10.70;6.80;;;27.60;86.80;;;;;;20909879;28;20602;-67
2023/06/21 13:54:36;;;;;;;7.80;6.37;;;27.60;85.90;;;;;;20913515;28;20207;-69
2023/06/21 14:04:38;;;;;;;6.53;5.87;;;27.90;83.90;;;;;;20928082;28;20583;-71
2023/06/21 14:14:43;;;;;;;11.63;6.45;;;28.30;82.60;;;;;;20961930;28;20207;-67
2023/06/21 14:24:46;;;;;;;10.27;5.97;;;28.80;80.20;;;;;;20973466;28;20270;-68
2023/06/21 14:34:48;;;;;;;10.18;6.40;;;29.60;76.00;;;;;;20947335;28;20294;-66
2023/06/21 14:44:50;;;;;;;7.47;6.00;;;29.10;75.00;;;;;;20990330;28;20244;-64
2023/06/21 14:54:52;;;;;;;8.55;6.40;;;30.40;72.20;;;;;;20918423;28;20250;-71
2023/06/21 15:04:54;;;;;;;12.07;6.18;;;30.40;70.50;;;;;;20958635;28;20253;-65
2023/06/21 15:14:55;;;;;;;10.15;6.80;;;29.80;70.30;;;;;;21001984;28;20722;-71
2023/06/21 15:24:57;;;;;;;12.88;6.55;;;30.50;68.30;;;;;;21004282;28;20284;-65
2023/06/21 15:34:59;;;;;;;8.27;6.85;;;30.20;68.40;;;;;;20995588;28;20231;-66
2023/06/21 15:45:01;;;;;;;6.38;5.32;;;30.40;68.10;;;;;;20916870;28;20239;-64
2023/06/21 15:55:04;;;;;;;7.38;5.50;;;30.40;67.70;;;;;;20915111;28;20235;-64
2023/06/21 16:05:06;;;;;;;9.35;6.25;;;32.30;63.50;;;;;;20915372;28;20232;-64
2023/06/21 16:15:08;;;;;;;5.40;4.90;;;33.90;58.90;;;;;;20915327;28;20240;-64
2023/06/21 16:25:10;;;;;;;8.23;4.65;;;34.50;55.50;;;;;;20913369;28;20236;-69
2023/06/21 16:35:12;;;;;;;6.20;4.47;;;37.90;49.80;;;;;;20920651;28;20195;-66
2023/06/21 16:45:13;;;;;;;8.73;5.05;;;34.10;53.20;;;;;;20995711;28;20250;-64
2023/06/21 16:55:15;;;;;;;8.25;5.07;;;32.80;54.60;;;;;;20993396;28;20290;-67
2023/06/21 17:05:18;;;;;;;6.55;4.97;;;32.50;56.00;;;;;;20992392;28;20243;-72
2023/06/21 17:15:20;;;;;;;5.40;4.60;;;32.90;54.80;;;;;;20991555;28;20203;-75
2023/06/21 17:25:22;;;;;;;8.25;5.47;;;35.30;51.00;;;;;;20989031;28;20259;-64
2023/06/21 17:35:24;;;;;;;7.85;4.88;;;35.80;49.50;;;;;;20998929;28;20207;-67
2023/06/21 17:45:26;;;;;;;7.18;4.95;;;33.00;53.20;;;;;;20888742;28;20359;-63
2023/06/21 17:55:28;;;;;;;9.30;5.07;;;32.70;52.60;;;;;;20843707;28;20204;-72
2023/06/21 18:05:30;;;;;;;6.22;4.72;;;33.30;52.00;;;;;;20844721;28;20244;-75
2023/06/21 18:15:32;;;;;;;5.65;4.97;;;32.80;52.80;;;;;;20845721;28;20315;-64
2023/06/21 18:25:34;;;;;;;5.90;4.97;;;30.90;55.80;;;;;;20840099;28;20306;-69
2023/06/21 18:35:39;;;;;;;7.90;5.45;;;29.80;57.80;;;;;;20929832;28;20303;-63
2023/06/21 18:45:41;;;;;;;5.85;5.20;;;29.00;59.50;;;;;;20991073;28;20289;-64
2023/06/21 18:55:42;;;;;;;6.03;5.18;;;28.50;61.90;;;;;;20921170;28;20290;-62
2023/06/21 19:05:44;;;;;;;9.40;7.23;;;27.90;64.30;;;;;;20956295;28;20325;-64
2023/06/21 19:15:46;;;;;;;8.57;6.37;;;27.50;67.10;;;;;;21002583;28;20633;-65
2023/06/21 19:25:48;;;;;;;7.80;7.00;;;27.00;70.30;;;;;;20963082;28;20330;-64
2023/06/21 19:35:49;;;;;;;7.80;6.33;;;26.70;73.80;;;;;;20920634;28;20710;-62
2023/06/21 19:45:51;;;;;;;8.93;7.30;;;26.30;77.00;;;;;;20993343;28;20322;-76
2023/06/21 19:55:56;;;;;;;13.17;7.50;;;26.10;80.10;;;;;;20916393;28;20295;-79
2023/06/21 20:05:57;;;;;;;11.43;7.10;;;25.80;83.30;;;;;;20916603;28;20232;-79
2023/06/21 20:16:08;;;;;;;8.47;7.07;;;25.50;86.70;;;;;;20914035;28;20219;-69
2023/06/21 20:26:10;;;;;;;7.77;7.00;;;25.30;90.00;;;;;;20913181;28;20326;-68
2023/06/21 20:36:12;;;;;;;9.87;7.10;;;25.20;90.60;;;;;;20913801;28;20204;-68
2023/06/21 20:46:15;;;;;;;8.57;6.90;;;25.10;91.30;;;;;;20914803;28;20243;-68
2023/06/21 20:56:18;;;;;;;10.03;7.37;;;24.90;91.90;;;;;;20917309;28;20248;-72
2023/06/21 21:06:20;;;;;;;8.47;7.20;;;24.80;92.50;;;;;;20911648;28;20259;-69
2023/06/21 21:16:22;;;;;;;9.90;7.67;;;24.60;93.20;;;;;;20910517;28;20211;-72
2023/06/21 21:26:24;;;;;;;10.43;7.73;;;24.50;94.00;;;;;;20908716;28;20335;-69
2023/06/21 21:36:25;;;;;;;9.50;6.93;;;24.30;94.50;;;;;;20906675;28;20697;-62
2023/06/21 21:46:27;;;;;;;10.50;8.07;;;24.10;95.30;;;;;;20909922;28;20330;-62
2023/06/21 21:56:29;;;;;;;10.03;7.20;;;24.00;95.80;;;;;;20910370;28;20208;-61
2023/06/21 22:06:32;;;;;;;9.60;7.60;;;23.90;96.40;;;;;;20909823;28;20583;-62
2023/06/21 22:16:33;;;;;;;10.80;7.57;;;23.80;96.80;;;;;;20913935;28;20254;-62
2023/06/21 22:26:35;;;;;;;12.90;8.20;;;23.60;97.20;;;;;;20924042;28;20660;-62
2023/06/21 22:36:38;;;;;;;13.57;9.10;;;23.50;97.90;;;;;;20923035;28;20766;-62
2023/06/21 22:46:41;;;;;;;14.17;9.43;;;23.20;98.60;;;;;;20898491;28;20274;-65
2023/06/21 22:56:43;;;;;;;13.77;9.20;;;22.90;99.20;;;;;;20890056;28;20604;-63
2023/06/21 23:06:44;;;;;;;12.07;9.07;;;22.80;99.90;;;;;;20889908;28;20309;-62
2023/06/21 23:16:46;;;;;;;9.87;8.87;;;22.60;99.90;;;;;;20902001;28;20212;-71
2023/06/21 23:26:48;;;;;;;18.57;9.30;;;22.50;99.90;;;;;;20862123;28;20331;-64
2023/06/21 23:36:51;;;;;;;11.97;9.87;;;22.40;99.90;;;;;;20836434;28;20235;-73
2023/06/21 23:46:53;;;;;;;14.37;9.40;;;22.30;99.90;;;;;;20836479;28;20302;-68
2023/06/21 23:56:54;;;;;;;10.47;9.37;;;22.30;99.90;;;;;;20836902;28;20291;-74
